createdAt,value
2022-11-15T00:05:20.634Z,9.10
2022-11-15T00:10:41.976Z,9.19
2022-11-15T00:16:05.408Z,9.23
2022-11-15T00:21:26.754Z,9.20
2022-11-15T00:26:47.847Z,9.26
2022-11-15T00:32:10.503Z,9.31
2022-11-15T00:37:32.037Z,9.31
2022-11-15T00:42:53.411Z,9.36
2022-11-15T00:48:16.115Z,9.41
2022-11-15T00:53:37.414Z,9.47
2022-11-15T00:58:59.238Z,9.54
2022-11-15T01:04:22.116Z,9.59
2022-11-15T01:09:43.295Z,9.64
2022-11-15T01:15:05.147Z,9.74
2022-11-15T01:20:27.865Z,9.85
2022-11-15T01:25:49.277Z,9.93
2022-11-15T01:31:13.942Z,10.00
2022-11-15T01:36:36.511Z,10.04
2022-11-15T01:41:58.033Z,10.13
2022-11-15T01:47:22.147Z,10.12
2022-11-15T01:52:45.557Z,9.87
2022-11-15T01:58:09.218Z,9.63
2022-11-15T02:03:38.999Z,9.50
2022-11-15T02:09:02.467Z,9.23
2022-11-15T02:14:25.997Z,9.05
2022-11-15T02:20:27.865Z,9.05
2022-11-15T02:26:08.526Z,9.15
2022-11-15T02:31:38.975Z,9.18
2022-11-15T02:37:05.868Z,9.20
2022-11-15T02:42:49.008Z,9.20
2022-11-15T02:48:13.406Z,9.24
2022-11-15T02:53:34.799Z,9.26
2022-11-15T02:59:13.641Z,9.34
2022-11-15T03:04:45.219Z,9.70
2022-11-15T03:10:11.982Z,10.07
2022-11-15T03:15:39.071Z,10.25
2022-11-15T03:21:04.624Z,10.26
2022-11-15T03:26:27.627Z,10.26
2022-11-15T03:31:53.450Z,10.27
2022-11-15T03:37:19.407Z,10.28
2022-11-15T03:42:45.736Z,10.29
2022-11-15T03:48:14.715Z,10.32
2022-11-15T03:53:37.146Z,10.29
2022-11-15T03:58:58.323Z,10.35
2022-11-15T04:04:19.688Z,10.38
2022-11-15T04:09:56.107Z,10.42
2022-11-15T04:15:19.483Z,10.28
2022-11-15T04:20:58.195Z,10.31
2022-11-15T04:26:23.075Z,10.31
2022-11-15T04:31:44.259Z,10.25
2022-11-15T04:37:14.138Z,10.14
2022-11-15T04:42:36.848Z,10.16
2022-11-15T04:47:58.006Z,10.10
2022-11-15T04:53:19.197Z,10.05
2022-11-15T04:58:41.625Z,10.02
2022-11-15T05:04:20.106Z,10.01
2022-11-15T05:09:41.595Z,9.97
2022-11-15T05:15:04.489Z,9.91
2022-11-15T05:20:25.428Z,9.92
2022-11-15T05:25:47.035Z,9.81
2022-11-15T05:31:11.135Z,9.88
2022-11-15T05:36:37.594Z,9.90
2022-11-15T05:42:04.020Z,9.93
2022-11-15T05:47:29.753Z,9.91
2022-11-15T05:52:53.264Z,9.89
2022-11-15T05:58:14.511Z,9.94
2022-11-15T06:03:37.230Z,9.95
2022-11-15T06:08:58.326Z,9.99
2022-11-15T06:14:19.734Z,10.02
2022-11-15T06:19:42.252Z,10.01
2022-11-15T06:25:05.590Z,10.05
2022-11-15T06:30:28.429Z,10.08
2022-11-15T06:35:50.871Z,10.11
2022-11-15T06:41:13.078Z,10.16
2022-11-15T06:46:34.220Z,10.17
2022-11-15T06:51:56.871Z,10.20
2022-11-15T06:57:18.176Z,10.20
2022-11-15T07:02:39.307Z,10.22
2022-11-15T07:08:02.571Z,10.31
2022-11-15T07:13:26.884Z,10.37
2022-11-15T07:18:48.335Z,10.40
2022-11-15T07:24:11.147Z,10.50
2022-11-15T07:29:32.257Z,11.04
2022-11-15T07:34:53.410Z,11.70
2022-11-15T07:40:16.401Z,12.24
2022-11-15T07:45:43.251Z,12.16
2022-11-15T07:51:06.804Z,11.93
2022-11-15T07:56:31.635Z,11.96
2022-11-15T08:01:53.319Z,11.74
2022-11-15T08:07:14.764Z,11.79
2022-11-15T08:12:37.335Z,12.07
2022-11-15T08:17:59.417Z,12.66
2022-11-15T08:23:20.764Z,13.23
2022-11-15T08:28:43.511Z,13.91
2022-11-15T08:34:05.267Z,14.00
2022-11-15T08:39:26.751Z,13.96
2022-11-15T08:44:49.524Z,14.23
2022-11-15T08:50:11.334Z,13.74
2022-11-15T08:55:32.543Z,13.93
2022-11-15T09:00:55.001Z,14.28
2022-11-15T09:06:16.784Z,14.37
2022-11-15T09:11:38.468Z,14.38
2022-11-15T09:17:01.531Z,14.18
2022-11-15T09:22:23.529Z,14.89
2022-11-15T09:27:44.778Z,15.08
2022-11-15T09:33:11.010Z,14.62
2022-11-15T09:38:33.247Z,14.57
2022-11-15T09:44:06.905Z,15.13
2022-11-15T09:49:31.427Z,15.15
2022-11-15T09:54:54.240Z,14.34
2022-11-15T10:05:31.467Z,14.75
2022-11-15T10:10:39.752Z,14.81
2022-11-15T10:15:46.292Z,14.93
2022-11-15T10:20:54.993Z,15.22
2022-11-15T10:26:06.373Z,14.40
2022-11-15T10:31:24.264Z,15.02
2022-11-15T10:36:29.486Z,15.63
2022-11-15T10:41:36.896Z,15.50
2022-11-15T10:46:49.104Z,16.40
2022-11-15T10:51:55.819Z,16.47
2022-11-15T10:57:01.450Z,16.76
2022-11-15T11:02:04.291Z,17.27
2022-11-15T11:07:22.384Z,17.45
2022-11-15T11:12:31.059Z,17.41
2022-11-15T11:17:51.876Z,17.03
2022-11-15T11:23:04.944Z,17.88
2022-11-15T11:28:27.841Z,18.50
2022-11-15T11:33:34.471Z,18.47
2022-11-15T11:38:55.976Z,19.40
2022-11-15T11:44:10.642Z,18.71
2022-11-15T11:49:19.751Z,18.39
2022-11-15T11:54:32.358Z,19.05
2022-11-15T11:59:42.041Z,18.71
2022-11-15T12:04:50.027Z,17.86
2022-11-15T12:09:59.890Z,19.40
2022-11-15T12:15:05.337Z,19.12
2022-11-15T12:20:18.625Z,18.71
2022-11-15T12:25:25.732Z,18.41
2022-11-15T12:30:42.148Z,18.28
2022-11-15T12:35:46.190Z,17.89
2022-11-15T12:41:18.950Z,17.46
2022-11-15T12:46:24.493Z,17.30
2022-11-15T12:52:09.475Z,16.90
2022-11-15T12:57:31.405Z,17.63
2022-11-15T13:02:38.023Z,17.66
2022-11-15T13:07:59.887Z,18.18
2022-11-15T13:13:04.136Z,18.51
2022-11-15T13:18:32.917Z,17.59
2022-11-15T13:23:35.947Z,17.58
2022-11-15T13:28:40.988Z,17.30
2022-11-15T13:33:46.084Z,16.41
2022-11-15T13:38:57.678Z,16.73
2022-11-15T13:44:02.034Z,17.31
2022-11-15T13:49:07.899Z,16.97
2022-11-15T13:54:21.477Z,16.90
2022-11-15T13:59:27.568Z,16.66
2022-11-15T14:04:34.791Z,16.05
2022-11-15T14:09:39.113Z,15.58
2022-11-15T14:14:47.517Z,15.25
2022-11-15T14:19:52.739Z,15.32
2022-11-15T14:25:17.271Z,15.64
2022-11-15T14:30:20.247Z,15.23
2022-11-15T14:35:25.714Z,15.08
2022-11-15T14:40:28.490Z,14.97
2022-11-15T14:45:31.320Z,14.76
2022-11-15T14:50:36.862Z,14.67
2022-11-15T14:55:39.859Z,14.42
2022-11-15T15:00:43.691Z,14.19
2022-11-15T15:05:47.888Z,13.96
2022-11-15T15:10:50.684Z,13.71
2022-11-15T15:15:54.211Z,13.44
2022-11-15T15:21:03.848Z,13.45
2022-11-15T15:26:06.620Z,13.37
2022-11-15T15:31:10.502Z,13.23
2022-11-15T15:36:16.401Z,13.35
2022-11-15T15:41:19.309Z,13.37
2022-11-15T15:46:22.472Z,13.38
2022-11-15T15:51:26.660Z,13.34
2022-11-15T15:56:29.477Z,13.39
2022-11-15T16:01:32.361Z,13.38
2022-11-15T16:06:40.206Z,13.33
2022-11-15T16:11:43.237Z,13.27
2022-11-15T16:16:45.957Z,13.25
2022-11-15T16:21:50.133Z,13.10
2022-11-15T16:26:53.895Z,13.14
2022-11-15T16:31:56.859Z,13.03
2022-11-15T16:37:01.423Z,12.89
2022-11-15T16:42:04.394Z,12.85
2022-11-15T16:47:07.204Z,12.85
2022-11-15T16:52:11.417Z,12.78
2022-11-15T16:57:14.220Z,12.71
2022-11-15T17:02:17.291Z,12.70
2022-11-15T17:07:21.521Z,12.60
2022-11-15T17:12:24.351Z,12.58
2022-11-15T17:17:27.429Z,12.52
2022-11-15T17:22:32.541Z,12.44
2022-11-15T17:27:35.303Z,12.40
2022-11-15T17:32:38.363Z,12.46
2022-11-15T17:37:42.364Z,12.45
2022-11-15T17:42:45.210Z,12.42
2022-11-15T17:47:48.004Z,12.43
2022-11-15T17:52:52.117Z,12.39
2022-11-15T17:57:54.972Z,12.37
2022-11-15T18:02:58.115Z,12.29
2022-11-15T18:08:02.252Z,12.22
2022-11-15T18:13:05.284Z,12.24
2022-11-15T18:18:08.079Z,12.30
2022-11-15T18:23:12.287Z,12.20
2022-11-15T18:28:15.124Z,12.44
2022-11-15T18:33:18.884Z,12.42
2022-11-15T18:38:23.002Z,12.45
2022-11-15T18:43:25.950Z,12.43
2022-11-15T18:48:30.530Z,12.43
2022-11-15T18:53:36.457Z,12.39
2022-11-15T18:58:41.627Z,12.44
2022-11-15T19:03:47.004Z,12.45
2022-11-15T19:08:54.590Z,12.41
2022-11-15T19:13:59.632Z,12.50
2022-11-15T19:19:04.776Z,12.50
2022-11-15T19:24:10.332Z,12.50
2022-11-15T19:29:13.798Z,12.51
2022-11-15T19:34:17.811Z,12.48
2022-11-15T19:39:21.931Z,12.49
2022-11-15T19:44:26.315Z,12.45
2022-11-15T19:49:29.148Z,12.37
2022-11-15T19:54:33.304Z,12.32
2022-11-15T19:59:36.094Z,12.27
2022-11-15T20:04:38.871Z,12.28
2022-11-15T20:09:43.613Z,12.25
2022-11-15T20:14:46.660Z,12.11
2022-11-15T20:19:49.442Z,12.08
2022-11-15T20:24:53.819Z,12.04
2022-11-15T20:29:56.668Z,12.05
2022-11-15T20:34:59.443Z,12.05
2022-11-15T20:40:03.897Z,12.07
2022-11-15T20:45:07.871Z,12.02
2022-11-15T20:50:40.595Z,12.03
2022-11-15T20:55:35.250Z,12.02
2022-11-15T21:00:38.358Z,12.02
2022-11-15T21:05:43.677Z,12.01
2022-11-15T21:11:09.265Z,11.90
2022-11-15T21:16:12.072Z,11.99
2022-11-15T21:21:15.290Z,11.94
2022-11-15T21:26:19.505Z,11.93
2022-11-15T21:31:22.898Z,11.92
2022-11-15T21:36:26.033Z,11.94
2022-11-15T21:41:30.134Z,12.08
2022-11-15T21:46:33.359Z,12.09
2022-11-15T21:51:36.433Z,12.06
2022-11-15T21:56:41.721Z,12.04
2022-11-15T22:02:03.230Z,12.10
2022-11-15T22:07:06.095Z,12.04
2022-11-15T22:12:10.249Z,11.90
2022-11-15T22:17:13.148Z,11.97
2022-11-15T22:22:16.068Z,11.93
2022-11-15T22:27:20.214Z,11.90
2022-11-15T22:32:23.223Z,11.83
2022-11-15T22:37:26.069Z,11.91
2022-11-15T22:42:30.280Z,11.80
2022-11-15T22:47:33.135Z,11.90
2022-11-15T22:52:36.086Z,11.78
2022-11-15T22:57:40.288Z,11.77
2022-11-15T23:02:43.428Z,11.81
2022-11-15T23:07:46.233Z,11.67
2022-11-15T23:13:07.878Z,11.72
2022-11-15T23:18:10.729Z,11.67
2022-11-15T23:23:14.403Z,11.72
2022-11-15T23:28:18.617Z,11.63
2022-11-15T23:33:39.235Z,11.71
2022-11-15T23:38:42.638Z,11.72
2022-11-15T23:43:46.927Z,11.65
2022-11-15T23:48:49.729Z,11.45
2022-11-15T23:53:52.642Z,11.18
2022-11-15T23:58:56.874Z,10.89
